createdAt,value
2022-10-15T00:01:15.854Z,100576.53
2022-10-15T00:03:44.219Z,100586.47
2022-10-15T00:06:13.862Z,100587.47
2022-10-15T00:08:40.964Z,100585.75
2022-10-15T00:11:12.144Z,100588.44
2022-10-15T00:13:39.487Z,100591.22
2022-10-15T00:16:09.542Z,100591.97
2022-10-15T00:18:36.069Z,100582.69
2022-10-15T00:21:06.254Z,100589.84
2022-10-15T00:23:32.740Z,100592.44
2022-10-15T00:26:13.991Z,100592.31
2022-10-15T00:28:41.088Z,100581.09
2022-10-15T00:31:11.416Z,100589.63
2022-10-15T00:33:38.460Z,100584.28
2022-10-15T00:36:14.533Z,100584.28
2022-10-15T00:38:41.406Z,100583.66
2022-10-15T00:41:12.679Z,100574.84
2022-10-15T00:43:41.214Z,100573.50
2022-10-15T00:46:35.690Z,100580.81
2022-10-15T00:49:26.006Z,100562.63
2022-10-15T00:51:56.830Z,100566.72
2022-10-15T00:54:23.801Z,100566.88
2022-10-15T00:56:51.654Z,100562.09
2022-10-15T00:59:22.434Z,100561.22
2022-10-15T01:01:48.946Z,100562.09
2022-10-15T01:04:18.755Z,100562.94
2022-10-15T01:06:46.043Z,100551.09
2022-10-15T01:09:13.296Z,100554.72
2022-10-15T01:11:44.814Z,100559.25
2022-10-15T01:14:31.654Z,100556.06
2022-10-15T01:17:10.142Z,100552.66
2022-10-15T01:19:54.766Z,100552.13
2022-10-15T01:22:49.074Z,100567.91
2022-10-15T01:25:22.066Z,100565.34
2022-10-15T01:27:56.812Z,100565.13
2022-10-15T01:30:25.903Z,100564.59
2022-10-15T01:33:11.278Z,100560.94
2022-10-15T01:35:47.741Z,100559.75
2022-10-15T01:38:32.362Z,100559.97
2022-10-15T01:41:00.402Z,100556.56
2022-10-15T01:43:43.860Z,100557.47
2022-10-15T01:46:20.683Z,100555.88
2022-10-15T01:48:48.695Z,100551.50
2022-10-15T01:51:17.715Z,100544.66
2022-10-15T01:53:45.854Z,100551.72
2022-10-15T01:56:22.492Z,100552.41
2022-10-15T01:58:52.007Z,100554.22
2022-10-15T02:01:18.671Z,100554.66
2022-10-15T02:03:52.923Z,100564.84
2022-10-15T02:06:34.510Z,100558.75
2022-10-15T02:09:15.443Z,100562.41
2022-10-15T02:12:06.192Z,100564.31
2022-10-15T02:14:47.858Z,100560.38
2022-10-15T02:17:16.405Z,100556.00
2022-10-15T02:19:51.746Z,100560.81
2022-10-15T02:22:26.903Z,100558.03
2022-10-15T02:25:03.230Z,100564.03
2022-10-15T02:27:32.900Z,100560.38
2022-10-15T02:30:07.524Z,100556.16
2022-10-15T02:32:35.587Z,100556.88
2022-10-15T02:35:03.024Z,100548.53
2022-10-15T02:37:31.094Z,100546.09
2022-10-15T02:39:57.675Z,100546.94
2022-10-15T02:42:25.021Z,100546.94
2022-10-15T02:44:51.964Z,100550.03
2022-10-15T02:47:18.607Z,100545.34
2022-10-15T02:49:45.112Z,100550.81
2022-10-15T02:52:11.626Z,100548.47
2022-10-15T02:54:38.139Z,100551.34
2022-10-15T02:57:04.631Z,100543.31
2022-10-15T02:59:31.106Z,100542.88
2022-10-15T03:01:57.631Z,100544.72
2022-10-15T03:04:24.109Z,100543.22
2022-10-15T03:06:50.878Z,100535.72
2022-10-15T03:09:17.402Z,100531.56
2022-10-15T03:11:43.949Z,100533.81
2022-10-15T03:14:10.503Z,100526.53
2022-10-15T03:16:39.370Z,100523.00
2022-10-15T03:19:07.709Z,100535.50
2022-10-15T03:21:34.254Z,100526.63
2022-10-15T03:24:00.765Z,100527.28
2022-10-15T03:26:27.502Z,100523.09
2022-10-15T03:28:54.045Z,100525.75
2022-10-15T03:31:20.644Z,100519.78
2022-10-15T03:33:47.125Z,100524.91
2022-10-15T03:36:13.715Z,100528.75
2022-10-15T03:38:40.208Z,100532.69
2022-10-15T03:41:07.822Z,100537.94
2022-10-15T03:43:37.481Z,100542.53
2022-10-15T03:46:08.104Z,100537.00
2022-10-15T03:48:34.627Z,100539.69
2022-10-15T03:51:01.200Z,100541.53
2022-10-15T03:53:27.761Z,100533.06
2022-10-15T03:55:54.430Z,100540.44
2022-10-15T03:58:21.062Z,100542.03
2022-10-15T04:00:47.609Z,100535.91
2022-10-15T04:03:14.519Z,100536.13
2022-10-15T04:05:40.991Z,100528.88
2022-10-15T04:08:07.527Z,100531.66
2022-10-15T04:10:34.102Z,100526.31
2022-10-15T04:13:00.592Z,100528.88
2022-10-15T04:15:27.875Z,100530.06
2022-10-15T04:17:55.705Z,100527.56
2022-10-15T04:20:22.274Z,100523.28
2022-10-15T04:22:48.747Z,100525.50
2022-10-15T04:25:15.521Z,100530.84
2022-10-15T04:27:42.019Z,100529.78
2022-10-15T04:30:09.339Z,100530.66
2022-10-15T04:32:35.848Z,100525.50
2022-10-15T04:35:02.310Z,100540.03
2022-10-15T04:37:28.838Z,100540.13
2022-10-15T04:39:55.335Z,100540.13
2022-10-15T04:42:22.073Z,100541.00
2022-10-15T04:44:48.545Z,100549.75
2022-10-15T04:47:15.045Z,100537.78
2022-10-15T04:49:41.736Z,100540.31
2022-10-15T04:52:08.235Z,100533.28
2022-10-15T04:54:34.722Z,100535.19
2022-10-15T04:57:01.279Z,100536.91
2022-10-15T04:59:27.937Z,100536.59
2022-10-15T05:01:54.480Z,100533.00
2022-10-15T05:04:21.022Z,100534.97
2022-10-15T05:06:47.507Z,100533.50
2022-10-15T05:09:14.095Z,100536.81
2022-10-15T05:11:40.594Z,100539.47
2022-10-15T05:14:07.734Z,100542.81
2022-10-15T05:16:34.243Z,100547.19
2022-10-15T05:19:03.824Z,100548.59
2022-10-15T05:21:31.353Z,100546.78
2022-10-15T05:23:59.358Z,100551.63
2022-10-15T05:26:27.759Z,100554.09
2022-10-15T05:28:56.658Z,100551.63
2022-10-15T05:31:25.055Z,100546.91
2022-10-15T05:33:53.415Z,100542.44
2022-10-15T05:36:22.120Z,100540.84
2022-10-15T05:38:51.175Z,100535.06
2022-10-15T05:41:18.488Z,100534.56
2022-10-15T05:43:49.353Z,100536.72
2022-10-15T05:46:15.879Z,100528.41
2022-10-15T05:48:42.698Z,100533.53
2022-10-15T05:51:12.773Z,100550.22
2022-10-15T05:53:40.577Z,100546.63
2022-10-15T05:56:08.388Z,100548.22
2022-10-15T05:58:37.403Z,100551.75
2022-10-15T06:01:07.424Z,100563.06
2022-10-15T06:03:34.707Z,100539.66
2022-10-15T06:06:01.705Z,100543.09
2022-10-15T06:08:29.898Z,100545.13
2022-10-15T06:10:56.703Z,100556.25
2022-10-15T06:13:23.930Z,100562.16
2022-10-15T06:15:50.436Z,100573.94
2022-10-15T06:18:17.013Z,100569.63
2022-10-15T06:20:44.165Z,100576.28
2022-10-15T06:23:12.130Z,100578.19
2022-10-15T06:25:38.686Z,100578.28
2022-10-15T06:28:06.862Z,100588.13
2022-10-15T06:30:33.737Z,100583.59
2022-10-15T06:33:00.508Z,100589.91
2022-10-15T06:35:30.338Z,100588.25
2022-10-15T06:38:03.053Z,100584.69
2022-10-15T06:40:30.361Z,100585.59
2022-10-15T06:43:07.970Z,100576.53
2022-10-15T06:45:36.851Z,100578.06
2022-10-15T06:48:07.002Z,100584.09
2022-10-15T06:50:34.711Z,100585.59
2022-10-15T06:53:01.424Z,100585.03
2022-10-15T06:55:31.299Z,100586.44
2022-10-15T06:57:58.396Z,100594.03
2022-10-15T07:00:25.886Z,100591.47
2022-10-15T07:02:52.618Z,100594.63
2022-10-15T07:05:19.469Z,100593.38
2022-10-15T07:08:03.958Z,100595.81
2022-10-15T07:10:30.684Z,100601.78
2022-10-15T07:13:00.576Z,100599.66
2022-10-15T07:15:27.653Z,100604.84
2022-10-15T07:18:01.544Z,100601.00
2022-10-15T07:20:29.667Z,100605.09
2022-10-15T07:23:01.246Z,100594.00
2022-10-15T07:25:28.066Z,100593.72
2022-10-15T07:27:55.330Z,100596.81
2022-10-15T07:30:23.280Z,100591.31
2022-10-15T07:32:50.271Z,100588.28
2022-10-15T07:35:17.040Z,100592.44
2022-10-15T07:37:43.548Z,100589.53
2022-10-15T07:40:10.677Z,100584.00
2022-10-15T07:42:37.229Z,100584.34
2022-10-15T07:45:04.027Z,100593.63
2022-10-15T07:47:30.498Z,100587.09
2022-10-15T07:49:56.995Z,100593.38
2022-10-15T07:52:23.613Z,100582.88
2022-10-15T07:54:50.254Z,100588.94
2022-10-15T07:57:17.811Z,100587.66
2022-10-15T07:59:44.329Z,100589.03
2022-10-15T08:02:18.035Z,100585.75
2022-10-15T08:04:44.839Z,100590.84
2022-10-15T08:07:11.348Z,100594.19
2022-10-15T08:09:37.980Z,100595.72
2022-10-15T08:12:06.830Z,100593.38
2022-10-15T08:14:34.890Z,100601.69
2022-10-15T08:17:05.246Z,100599.81
2022-10-15T08:19:31.816Z,100608.47
2022-10-15T08:21:58.360Z,100604.69
2022-10-15T08:24:25.071Z,100607.59
2022-10-15T08:26:51.753Z,100602.47
2022-10-15T08:29:18.317Z,100592.97
2022-10-15T08:31:44.858Z,100595.69
2022-10-15T08:34:11.411Z,100590.22
2022-10-15T08:36:37.963Z,100595.44
2022-10-15T08:39:07.217Z,100590.69
2022-10-15T08:41:48.229Z,100595.22
2022-10-15T08:44:43.746Z,100599.53
2022-10-15T08:47:32.431Z,100594.78
2022-10-15T08:50:01.197Z,100599.25
2022-10-15T08:52:42.199Z,100599.94
2022-10-15T08:55:13.324Z,100593.88
2022-10-15T08:57:43.801Z,100592.25
2022-10-15T09:00:10.633Z,100596.19
2022-10-15T09:02:54.189Z,100597.00
2022-10-15T09:05:42.611Z,100591.38
2022-10-15T09:08:29.703Z,100577.91
2022-10-15T09:11:14.191Z,100585.88
2022-10-15T09:13:43.800Z,100593.50
2022-10-15T09:16:17.351Z,100604.22
2022-10-15T09:18:47.535Z,100600.34
2022-10-15T09:21:14.646Z,100609.53
2022-10-15T09:23:43.723Z,100609.34
2022-10-15T09:26:35.327Z,100613.41
2022-10-15T09:29:32.844Z,100613.84
2022-10-15T09:32:07.483Z,100611.94
2022-10-15T09:35:02.392Z,100613.56
2022-10-15T09:37:32.813Z,100611.13
2022-10-15T09:40:28.632Z,100613.09
2022-10-15T09:42:58.398Z,100603.94
2022-10-15T09:45:27.241Z,100602.16
2022-10-15T09:48:00.311Z,100610.03
2022-10-15T09:50:39.587Z,100605.81
2022-10-15T09:53:39.079Z,100599.25
2022-10-15T09:56:20.018Z,100606.09
2022-10-15T09:58:57.961Z,100603.16
2022-10-15T10:01:28.276Z,100600.25
2022-10-15T10:04:17.021Z,100594.97
2022-10-15T10:06:45.206Z,100593.75
2022-10-15T10:09:19.076Z,100593.22
2022-10-15T10:11:49.256Z,100592.81
2022-10-15T10:14:26.630Z,100577.31
2022-10-15T10:17:16.625Z,100583.50
2022-10-15T10:19:44.470Z,100584.00
2022-10-15T10:22:20.514Z,100579.97
2022-10-15T10:24:48.174Z,100585.28
2022-10-15T10:27:24.630Z,100578.88
2022-10-15T10:30:02.654Z,100575.47
2022-10-15T10:32:34.823Z,100569.19
2022-10-15T10:35:04.030Z,100573.22
2022-10-15T10:37:42.638Z,100574.06
2022-10-15T10:40:34.219Z,100565.53
2022-10-15T10:43:24.401Z,100564.41
2022-10-15T10:45:55.293Z,100557.81
2022-10-15T10:48:28.238Z,100547.81
2022-10-15T10:51:08.017Z,100549.31
2022-10-15T10:53:46.444Z,100539.00
2022-10-15T10:56:15.398Z,100546.25
2022-10-15T10:58:42.729Z,100547.00
2022-10-15T11:01:12.990Z,100547.09
2022-10-15T11:03:45.194Z,100546.16
2022-10-15T11:06:40.935Z,100547.19
2022-10-15T11:09:28.791Z,100540.09
2022-10-15T11:12:04.557Z,100539.81
2022-10-15T11:14:53.381Z,100541.13
2022-10-15T11:17:57.358Z,100542.16
2022-10-15T11:20:41.196Z,100539.78
2022-10-15T11:23:15.916Z,100529.41
2022-10-15T11:26:03.225Z,100521.69
2022-10-15T11:28:59.716Z,100513.72
2022-10-15T11:31:37.146Z,100506.34
2022-10-15T11:34:34.990Z,100501.13
2022-10-15T11:37:29.395Z,100500.59
2022-10-15T11:40:15.999Z,100494.38
2022-10-15T11:43:18.068Z,100492.00
2022-10-15T11:46:03.346Z,100499.06
2022-10-15T11:48:58.934Z,100501.88
2022-10-15T11:51:48.289Z,100499.25
2022-10-15T11:54:28.699Z,100496.06
2022-10-15T11:56:57.204Z,100495.78
2022-10-15T11:59:26.498Z,100493.69
2022-10-15T12:01:59.625Z,100493.78
2022-10-15T12:04:49.979Z,100496.06
2022-10-15T12:07:26.953Z,100490.78
2022-10-15T12:10:00.693Z,100487.41
2022-10-15T12:12:45.854Z,100489.28
2022-10-15T12:15:36.843Z,100478.00
2022-10-15T12:18:21.351Z,100476.84
2022-10-15T12:20:47.879Z,100476.31
2022-10-15T12:23:39.034Z,100476.31
2022-10-15T12:26:23.894Z,100480.22
2022-10-15T12:28:59.495Z,100466.19
2022-10-15T12:31:51.367Z,100464.19
2022-10-15T12:34:42.970Z,100462.50
2022-10-15T12:37:18.168Z,100477.28
2022-10-15T12:39:52.294Z,100470.63
2022-10-15T12:42:27.872Z,100467.09
2022-10-15T12:44:55.867Z,100470.91
2022-10-15T12:48:03.692Z,100465.94
2022-10-15T12:50:35.482Z,100462.09
2022-10-15T12:53:25.970Z,100459.44
2022-10-15T12:56:34.842Z,100456.19
2022-10-15T12:59:01.475Z,100451.75
2022-10-15T13:01:30.354Z,100455.06
2022-10-15T13:04:00.274Z,100453.56
2022-10-15T13:06:33.251Z,100460.50
2022-10-15T13:09:12.023Z,100463.25
2022-10-15T13:11:45.971Z,100464.09
2022-10-15T13:14:12.423Z,100465.97
2022-10-15T13:16:47.679Z,100470.38
2022-10-15T13:19:22.199Z,100473.88
2022-10-15T13:21:54.720Z,100470.31
2022-10-15T13:24:27.238Z,100465.03
2022-10-15T13:26:55.901Z,100468.81
2022-10-15T13:29:25.236Z,100455.06
2022-10-15T13:31:55.054Z,100463.44
2022-10-15T13:34:34.856Z,100460.44
2022-10-15T13:37:03.908Z,100459.59
2022-10-15T13:39:35.070Z,100459.41
2022-10-15T13:42:18.033Z,100466.09
2022-10-15T13:44:55.771Z,100459.59
2022-10-15T13:47:46.818Z,100466.84
2022-10-15T13:50:28.346Z,100468.25
2022-10-15T13:53:16.681Z,100467.38
2022-10-15T13:55:49.636Z,100461.84
2022-10-15T13:58:21.219Z,100462.38
2022-10-15T14:00:59.048Z,100469.56
2022-10-15T14:03:36.727Z,100461.75
2022-10-15T14:06:15.618Z,100461.56
2022-10-15T14:08:42.107Z,100458.72
2022-10-15T14:11:12.786Z,100454.97
2022-10-15T14:13:51.127Z,100456.84
2022-10-15T14:16:29.158Z,100452.34
2022-10-15T14:19:06.661Z,100453.72
2022-10-15T14:21:34.627Z,100462.09
2022-10-15T14:24:06.309Z,100457.50
2022-10-15T14:26:34.472Z,100455.47
2022-10-15T14:29:03.223Z,100453.31
2022-10-15T14:31:31.381Z,100455.34
2022-10-15T14:33:57.947Z,100448.78
2022-10-15T14:36:30.108Z,100451.34
2022-10-15T14:39:22.743Z,100456.47
2022-10-15T14:42:01.490Z,100440.41
2022-10-15T14:44:41.936Z,100435.47
2022-10-15T14:47:20.857Z,100436.44
2022-10-15T14:49:48.259Z,100434.91
2022-10-15T14:52:19.795Z,100442.41
2022-10-15T14:55:07.234Z,100447.00
2022-10-15T14:57:38.802Z,100447.34
2022-10-15T15:00:16.088Z,100451.28
2022-10-15T15:02:42.782Z,100453.06
2022-10-15T15:05:12.354Z,100447.31
2022-10-15T15:07:40.155Z,100457.03
2022-10-15T15:10:08.835Z,100455.88
2022-10-15T15:12:38.100Z,100450.13
2022-10-15T15:15:12.695Z,100461.22
2022-10-15T15:17:39.201Z,100458.28
2022-10-15T15:20:06.301Z,100456.97
2022-10-15T15:22:35.574Z,100462.41
2022-10-15T15:25:10.216Z,100464.81
2022-10-15T15:27:37.594Z,100469.56
2022-10-15T15:30:06.738Z,100467.41
2022-10-15T15:32:33.638Z,100468.59
2022-10-15T15:35:00.487Z,100467.22
2022-10-15T15:37:29.358Z,100460.47
2022-10-15T15:39:56.367Z,100464.00
2022-10-15T15:42:25.860Z,100466.63
2022-10-15T15:44:52.602Z,100469.69
2022-10-15T15:47:19.169Z,100470.22
2022-10-15T15:49:46.698Z,100474.13
2022-10-15T15:52:14.109Z,100474.28
2022-10-15T15:54:41.275Z,100479.41
2022-10-15T15:57:07.896Z,100481.97
2022-10-15T15:59:34.530Z,100494.56
2022-10-15T16:02:01.612Z,100488.84
2022-10-15T16:04:28.205Z,100479.16
2022-10-15T16:06:54.730Z,100487.34
2022-10-15T16:09:23.021Z,100494.63
2022-10-15T16:11:50.746Z,100494.66
2022-10-15T16:14:17.343Z,100500.09
2022-10-15T16:16:44.046Z,100503.00
2022-10-15T16:19:10.577Z,100498.91
2022-10-15T16:21:37.149Z,100502.50
2022-10-15T16:24:03.862Z,100504.34
2022-10-15T16:26:30.559Z,100505.03
2022-10-15T16:28:57.117Z,100514.69
2022-10-15T16:31:29.572Z,100510.66
2022-10-15T16:33:57.513Z,100519.47
2022-10-15T16:36:24.830Z,100525.25
2022-10-15T16:38:51.738Z,100520.13
2022-10-15T16:41:21.658Z,100527.41
2022-10-15T16:43:48.822Z,100533.84
2022-10-15T16:46:17.815Z,100544.00
2022-10-15T16:48:44.738Z,100545.22
2022-10-15T16:51:17.067Z,100551.31
2022-10-15T16:53:45.413Z,100546.88
2022-10-15T16:56:17.671Z,100550.63
2022-10-15T16:58:44.244Z,100553.28
2022-10-15T17:01:13.206Z,100554.47
2022-10-15T17:03:41.147Z,100560.91
2022-10-15T17:06:13.446Z,100563.13
2022-10-15T17:08:43.851Z,100558.06
2022-10-15T17:11:12.459Z,100560.09
2022-10-15T17:13:39.278Z,100563.28
2022-10-15T17:16:19.469Z,100570.53
2022-10-15T17:18:46.671Z,100577.47
2022-10-15T17:21:17.234Z,100568.63
2022-10-15T17:23:44.044Z,100573.91
2022-10-15T17:26:13.360Z,100583.03
2022-10-15T17:28:40.635Z,100573.19
2022-10-15T17:31:09.713Z,100571.03
2022-10-15T17:33:37.325Z,100578.59
2022-10-15T17:36:05.928Z,100580.28
2022-10-15T17:38:32.685Z,100593.16
2022-10-15T17:40:59.971Z,100588.88
2022-10-15T17:43:27.427Z,100594.59
2022-10-15T17:46:01.691Z,100595.47
2022-10-15T17:48:28.666Z,100595.63
2022-10-15T17:50:55.454Z,100599.16
2022-10-15T17:53:22.022Z,100604.41
2022-10-15T17:55:48.565Z,100606.97
2022-10-15T17:58:16.718Z,100598.63
2022-10-15T18:00:44.316Z,100604.56
2022-10-15T18:03:11.730Z,100603.16
2022-10-15T18:05:38.209Z,100609.59
2022-10-15T18:08:04.770Z,100602.09
2022-10-15T18:10:31.399Z,100605.13
2022-10-15T18:12:57.970Z,100608.81
2022-10-15T18:15:24.538Z,100611.19
2022-10-15T18:17:51.034Z,100603.72
2022-10-15T18:20:17.680Z,100610.69
2022-10-15T18:22:44.231Z,100606.06
2022-10-15T18:25:10.727Z,100609.25
2022-10-15T18:27:37.295Z,100614.66
2022-10-15T18:30:04.126Z,100617.84
2022-10-15T18:32:30.622Z,100631.56
2022-10-15T18:34:57.136Z,100624.41
2022-10-15T18:37:24.001Z,100629.31
2022-10-15T18:39:50.695Z,100632.19
2022-10-15T18:42:17.178Z,100630.31
2022-10-15T18:44:43.704Z,100630.94
2022-10-15T18:47:11.645Z,100630.69
2022-10-15T18:49:38.774Z,100633.97
2022-10-15T18:52:15.819Z,100625.47
2022-10-15T18:54:52.024Z,100632.03
2022-10-15T18:57:18.594Z,100629.63
2022-10-15T18:59:47.357Z,100627.06
2022-10-15T19:02:13.917Z,100630.97
2022-10-15T19:04:40.437Z,100634.84
2022-10-15T19:07:06.914Z,100635.53
2022-10-15T19:09:34.655Z,100637.16
2022-10-15T19:12:01.349Z,100643.25
2022-10-15T19:14:28.414Z,100641.56
2022-10-15T19:16:56.652Z,100635.59
2022-10-15T19:19:25.298Z,100649.13
2022-10-15T19:21:52.707Z,100655.72
2022-10-15T19:24:21.195Z,100646.19
2022-10-15T19:26:49.230Z,100644.78
2022-10-15T19:29:15.983Z,100644.09
2022-10-15T19:31:44.646Z,100654.91
2022-10-15T19:34:11.468Z,100660.47
2022-10-15T19:36:40.890Z,100658.63
2022-10-15T19:39:12.891Z,100667.38
2022-10-15T19:41:41.083Z,100665.34
2022-10-15T19:44:08.849Z,100658.09
2022-10-15T19:46:36.513Z,100665.91
2022-10-15T19:49:05.049Z,100664.34
2022-10-15T19:51:31.692Z,100668.53
2022-10-15T19:54:00.064Z,100682.94
2022-10-15T19:56:27.676Z,100679.81
2022-10-15T19:58:59.238Z,100680.66
2022-10-15T20:01:26.827Z,100689.22
2022-10-15T20:03:53.612Z,100691.94
2022-10-15T20:06:20.918Z,100690.09
2022-10-15T20:08:48.114Z,100694.50
2022-10-15T20:11:14.675Z,100694.50
2022-10-15T20:13:41.211Z,100686.53
2022-10-15T20:16:10.686Z,100696.66
2022-10-15T20:18:37.302Z,100695.53
2022-10-15T20:21:08.863Z,100704.50
2022-10-15T20:23:37.669Z,100704.50
2022-10-15T20:26:10.095Z,100706.22
2022-10-15T20:28:37.787Z,100704.09
2022-10-15T20:31:06.455Z,100705.66
2022-10-15T20:33:33.039Z,100706.81
2022-10-15T20:36:07.185Z,100709.38
2022-10-15T20:38:34.558Z,100712.38
2022-10-15T20:41:08.950Z,100714.06
2022-10-15T20:43:35.757Z,100725.88
2022-10-15T20:46:02.602Z,100719.66
2022-10-15T20:48:30.684Z,100720.06
2022-10-15T20:50:57.480Z,100731.75
2022-10-15T20:53:25.818Z,100727.50
2022-10-15T20:55:52.766Z,100734.47
2022-10-15T20:58:19.299Z,100731.63
2022-10-15T21:00:46.210Z,100731.75
2022-10-15T21:03:13.138Z,100736.16
2022-10-15T21:05:39.650Z,100730.75
2022-10-15T21:08:06.297Z,100733.22
2022-10-15T21:10:32.861Z,100727.41
2022-10-15T21:12:59.943Z,100730.25
2022-10-15T21:15:27.373Z,100736.34
2022-10-15T21:17:53.880Z,100737.06
2022-10-15T21:20:20.427Z,100734.50
2022-10-15T21:22:46.911Z,100728.22
2022-10-15T21:25:13.413Z,100734.19
2022-10-15T21:27:39.911Z,100738.63
2022-10-15T21:30:07.099Z,100737.06
2022-10-15T21:32:33.742Z,100736.75
2022-10-15T21:35:00.808Z,100728.34
2022-10-15T21:37:27.644Z,100731.19
2022-10-15T21:39:54.367Z,100733.03
2022-10-15T21:42:20.849Z,100739.31
2022-10-15T21:44:47.338Z,100739.00
2022-10-15T21:47:15.259Z,100737.31
2022-10-15T21:49:42.107Z,100735.59
2022-10-15T21:52:08.594Z,100746.75
2022-10-15T21:54:35.224Z,100750.97
2022-10-15T21:57:01.729Z,100753.84
2022-10-15T21:59:28.223Z,100755.53
2022-10-15T22:01:54.899Z,100761.09
2022-10-15T22:04:21.458Z,100762.09
2022-10-15T22:06:47.924Z,100762.09
2022-10-15T22:09:14.574Z,100767.78
2022-10-15T22:11:41.762Z,100768.53
2022-10-15T22:14:12.191Z,100762.25
2022-10-15T22:16:40.143Z,100774.75
2022-10-15T22:19:09.602Z,100777.31
2022-10-15T22:21:38.256Z,100771.38
2022-10-15T22:24:17.211Z,100765.41
2022-10-15T22:26:49.696Z,100767.38
2022-10-15T22:29:31.806Z,100775.50
2022-10-15T22:32:02.421Z,100772.06
2022-10-15T22:34:28.950Z,100762.94
2022-10-15T22:36:55.447Z,100761.97
2022-10-15T22:39:21.961Z,100764.09
2022-10-15T22:41:48.925Z,100766.09
2022-10-15T22:44:18.896Z,100770.63
2022-10-15T22:46:46.767Z,100774.06
2022-10-15T22:49:14.169Z,100776.63
2022-10-15T22:51:41.436Z,100785.72
2022-10-15T22:54:08.072Z,100786.88
2022-10-15T22:56:34.796Z,100791.13
2022-10-15T22:59:01.342Z,100787.59
2022-10-15T23:01:30.169Z,100792.13
2022-10-15T23:04:01.700Z,100792.00
2022-10-15T23:06:29.099Z,100796.72
2022-10-15T23:08:56.838Z,100798.09
2022-10-15T23:11:24.834Z,100797.41
2022-10-15T23:13:57.174Z,100795.84
2022-10-15T23:16:30.219Z,100798.84
2022-10-15T23:19:02.482Z,100804.84
2022-10-15T23:21:49.983Z,100812.97
2022-10-15T23:24:18.419Z,100809.06
2022-10-15T23:26:45.092Z,100816.63
2022-10-15T23:29:17.479Z,100806.13
2022-10-15T23:31:44.240Z,100810.09
2022-10-15T23:34:15.106Z,100815.50
2022-10-15T23:36:42.808Z,100819.06
2022-10-15T23:39:13.565Z,100810.78
2022-10-15T23:41:40.270Z,100820.34
2022-10-15T23:44:06.771Z,100822.22
2022-10-15T23:46:33.274Z,100813.09
2022-10-15T23:48:59.813Z,100831.00
2022-10-15T23:51:28.963Z,100831.00
2022-10-15T23:53:57.807Z,100830.16
2022-10-15T23:56:25.475Z,100829.59
2022-10-15T23:58:55.598Z,100828.88
